Terminal Aerodrome Forecast
Issued by NWS Cleveland, OH

Home | Current Version | Previous Version | Graphics & Text | Print | Product List | Glossary On
Versions: 1 2 3 4 5 6 7 8 9 10 11 12 13 14 15 16 17 18
000
FTUS41 KCLE 192200 AAC
TAFCAK
TAF AMD
KCAK 192221Z 1922/2018 18008KT P6SM BKN012 OVC025
      TEMPO 1922/2001 2SM -SHRA OVC005
     FM200100 00000KT P6SM BKN025
     FM200800 00000KT 1SM BR BKN005
     FM201400 00000KT P6SM BKN012
     FM201600 20004KT P6SM BKN025=

USA.gov is the U.S. government's official web portal to all federal, state and local government web resources and services.